Seattle, Washington
Traffic Map
Current Weather Conditions
Seattle, Washington
Overcast
Overcast
55°
Feels Like: 55°
Wind Chill: 55° Ceiling: 2700
Heat Index: 55° Visibility: 10mi
Dew Point: 46° Wind: 8mph
Humidity: 72% Direction: 170° (S)
Pressure: 30.2in Gusts: 0mph
Raw Report DataKBFI 261553Z 17007KT 10SM FEW023 BKN027 OVC045 13/08 A3020 RMK AO2 SLP224 T01280078
Traffic Incident Summary
Active as of:
Severity:
Category:
InformationThere was an issue retrieving the traffic information for this location. Please try a different location or try again shortly.
Advertisements
Track Severe Weather on mobile